sensor_id;sensor_type;location;lat;lon;timestamp;temperature;humidity
22469;DHT22;11401;50.792;4.352;2024-03-02T00:00:40;15.00;58.20
22469;DHT22;11401;50.792;4.352;2024-03-02T00:03:07;14.90;59.30
22469;DHT22;11401;50.792;4.352;2024-03-02T00:05:36;14.90;59.50
22469;DHT22;11401;50.792;4.352;2024-03-02T00:08:05;14.70;59.00
22469;DHT22;11401;50.792;4.352;2024-03-02T00:13:06;14.70;59.40
22469;DHT22;11401;50.792;4.352;2024-03-02T00:15:48;14.60;60.10
22469;DHT22;11401;50.792;4.352;2024-03-02T00:18:20;14.70;60.00
22469;DHT22;11401;50.792;4.352;2024-03-02T00:20:48;14.70;59.20
22469;DHT22;11401;50.792;4.352;2024-03-02T00:23:16;14.50;59.60
22469;DHT22;11401;50.792;4.352;2024-03-02T00:25:53;14.30;59.30
22469;DHT22;11401;50.792;4.352;2024-03-02T00:28:22;14.40;60.30
22469;DHT22;11401;50.792;4.352;2024-03-02T00:33:36;14.60;60.00
22469;DHT22;11401;50.792;4.352;2024-03-02T00:36:05;14.60;59.50
22469;DHT22;11401;50.792;4.352;2024-03-02T00:38:34;14.50;60.00
22469;DHT22;11401;50.792;4.352;2024-03-02T00:41:28;14.50;60.10
22469;DHT22;11401;50.792;4.352;2024-03-02T00:44:06;14.30;59.40
22469;DHT22;11401;50.792;4.352;2024-03-02T00:46:36;14.40;61.80
22469;DHT22;11401;50.792;4.352;2024-03-02T00:49:18;14.50;61.00
22469;DHT22;11401;50.792;4.352;2024-03-02T00:51:49;14.60;60.50
22469;DHT22;11401;50.792;4.352;2024-03-02T00:54:27;14.50;59.70
22469;DHT22;11401;50.792;4.352;2024-03-02T00:56:56;14.60;60.10
22469;DHT22;11401;50.792;4.352;2024-03-02T00:59:24;14.60;60.40
22469;DHT22;11401;50.792;4.352;2024-03-02T01:01:52;14.50;59.80
22469;DHT22;11401;50.792;4.352;2024-03-02T01:04:19;14.50;59.60
22469;DHT22;11401;50.792;4.352;2024-03-02T01:06:46;14.40;59.80
22469;DHT22;11401;50.792;4.352;2024-03-02T01:09:14;14.40;59.80
22469;DHT22;11401;50.792;4.352;2024-03-02T01:11:42;14.40;60.40
22469;DHT22;11401;50.792;4.352;2024-03-02T01:14:09;14.50;59.90
22469;DHT22;11401;50.792;4.352;2024-03-02T01:16:36;14.50;60.20
22469;DHT22;11401;50.792;4.352;2024-03-02T01:19:03;14.60;59.80
22469;DHT22;11401;50.792;4.352;2024-03-02T01:21:31;14.50;59.60
22469;DHT22;11401;50.792;4.352;2024-03-02T01:23:58;14.50;59.80
22469;DHT22;11401;50.792;4.352;2024-03-02T01:26:25;14.50;59.00
22469;DHT22;11401;50.792;4.352;2024-03-02T01:28:52;14.30;59.10
22469;DHT22;11401;50.792;4.352;2024-03-02T01:31:20;14.30;60.20
22469;DHT22;11401;50.792;4.352;2024-03-02T01:33:47;14.30;60.70
22469;DHT22;11401;50.792;4.352;2024-03-02T01:36:14;14.20;60.80
22469;DHT22;11401;50.792;4.352;2024-03-02T01:38:41;14.40;60.20
22469;DHT22;11401;50.792;4.352;2024-03-02T01:41:08;14.50;60.10
22469;DHT22;11401;50.792;4.352;2024-03-02T01:43:35;14.50;60.70
22469;DHT22;11401;50.792;4.352;2024-03-02T01:46:07;14.40;60.20
22469;DHT22;11401;50.792;4.352;2024-03-02T01:48:34;14.40;59.70
22469;DHT22;11401;50.792;4.352;2024-03-02T01:51:02;14.50;61.00
22469;DHT22;11401;50.792;4.352;2024-03-02T01:53:29;14.50;60.10
22469;DHT22;11401;50.792;4.352;2024-03-02T01:55:56;14.50;60.20
22469;DHT22;11401;50.792;4.352;2024-03-02T01:58:23;14.60;60.40
22469;DHT22;11401;50.792;4.352;2024-03-02T02:00:50;14.60;59.70
22469;DHT22;11401;50.792;4.352;2024-03-02T02:03:17;14.50;59.40
22469;DHT22;11401;50.792;4.352;2024-03-02T02:05:45;14.50;59.80
22469;DHT22;11401;50.792;4.352;2024-03-02T02:08:13;14.40;59.20
22469;DHT22;11401;50.792;4.352;2024-03-02T02:10:40;14.40;60.00
22469;DHT22;11401;50.792;4.352;2024-03-02T02:13:07;14.40;59.70
22469;DHT22;11401;50.792;4.352;2024-03-02T02:15:35;14.40;60.10
22469;DHT22;11401;50.792;4.352;2024-03-02T02:18:03;14.50;60.10
22469;DHT22;11401;50.792;4.352;2024-03-02T02:20:31;14.60;59.70
22469;DHT22;11401;50.792;4.352;2024-03-02T02:23:02;14.50;59.30
22469;DHT22;11401;50.792;4.352;2024-03-02T02:25:29;14.50;59.70
22469;DHT22;11401;50.792;4.352;2024-03-02T02:27:57;14.50;59.70
22469;DHT22;11401;50.792;4.352;2024-03-02T02:30:30;14.50;59.60
22469;DHT22;11401;50.792;4.352;2024-03-02T02:32:58;14.50;59.90
22469;DHT22;11401;50.792;4.352;2024-03-02T02:35:25;14.60;59.80
22469;DHT22;11401;50.792;4.352;2024-03-02T02:37:54;14.50;59.80
22469;DHT22;11401;50.792;4.352;2024-03-02T02:40:22;14.40;59.40
22469;DHT22;11401;50.792;4.352;2024-03-02T02:42:50;14.40;59.90
22469;DHT22;11401;50.792;4.352;2024-03-02T02:45:20;14.40;60.10
22469;DHT22;11401;50.792;4.352;2024-03-02T02:47:47;14.50;59.90
22469;DHT22;11401;50.792;4.352;2024-03-02T02:50:14;14.50;59.70
22469;DHT22;11401;50.792;4.352;2024-03-02T02:52:42;14.40;59.90
22469;DHT22;11401;50.792;4.352;2024-03-02T02:55:11;14.40;60.00
22469;DHT22;11401;50.792;4.352;2024-03-02T02:57:42;14.50;59.80
22469;DHT22;11401;50.792;4.352;2024-03-02T03:00:14;14.50;59.30
22469;DHT22;11401;50.792;4.352;2024-03-02T03:02:46;14.40;59.90
22469;DHT22;11401;50.792;4.352;2024-03-02T03:05:15;14.40;59.30
22469;DHT22;11401;50.792;4.352;2024-03-02T03:07:43;14.40;59.60
22469;DHT22;11401;50.792;4.352;2024-03-02T03:10:16;14.40;59.70
22469;DHT22;11401;50.792;4.352;2024-03-02T03:12:43;14.30;59.80
22469;DHT22;11401;50.792;4.352;2024-03-02T03:15:11;14.30;59.60
22469;DHT22;11401;50.792;4.352;2024-03-02T03:17:40;14.30;59.60
22469;DHT22;11401;50.792;4.352;2024-03-02T03:20:07;14.10;59.60
22469;DHT22;11401;50.792;4.352;2024-03-02T03:22:40;14.10;60.70
22469;DHT22;11401;50.792;4.352;2024-03-02T03:25:07;14.10;60.50
22469;DHT22;11401;50.792;4.352;2024-03-02T03:27:37;14.10;60.20
22469;DHT22;11401;50.792;4.352;2024-03-02T03:30:08;14.20;60.80
22469;DHT22;11401;50.792;4.352;2024-03-02T03:32:35;14.20;60.50
22469;DHT22;11401;50.792;4.352;2024-03-02T03:35:03;14.20;59.90
22469;DHT22;11401;50.792;4.352;2024-03-02T03:37:31;14.20;60.00
22469;DHT22;11401;50.792;4.352;2024-03-02T03:40:03;14.20;60.10
22469;DHT22;11401;50.792;4.352;2024-03-02T03:42:37;14.20;60.00
22469;DHT22;11401;50.792;4.352;2024-03-02T03:45:08;14.20;60.10
22469;DHT22;11401;50.792;4.352;2024-03-02T03:47:35;14.10;60.00
22469;DHT22;11401;50.792;4.352;2024-03-02T03:50:03;14.20;60.20
22469;DHT22;11401;50.792;4.352;2024-03-02T03:52:33;14.30;60.90
22469;DHT22;11401;50.792;4.352;2024-03-02T03:55:00;14.40;60.40
22469;DHT22;11401;50.792;4.352;2024-03-02T03:57:28;14.30;60.00
22469;DHT22;11401;50.792;4.352;2024-03-02T03:59:55;14.30;60.30
22469;DHT22;11401;50.792;4.352;2024-03-02T04:02:22;14.30;60.00
22469;DHT22;11401;50.792;4.352;2024-03-02T04:04:51;14.30;60.60
22469;DHT22;11401;50.792;4.352;2024-03-02T04:07:18;14.30;59.70
22469;DHT22;11401;50.792;4.352;2024-03-02T04:09:45;14.30;59.90
22469;DHT22;11401;50.792;4.352;2024-03-02T04:12:12;14.30;59.70
22469;DHT22;11401;50.792;4.352;2024-03-02T04:14:40;14.20;60.00
22469;DHT22;11401;50.792;4.352;2024-03-02T04:17:09;14.30;59.80
22469;DHT22;11401;50.792;4.352;2024-03-02T04:19:37;14.30;59.60
22469;DHT22;11401;50.792;4.352;2024-03-02T04:22:04;14.30;59.80
22469;DHT22;11401;50.792;4.352;2024-03-02T04:24:44;14.30;59.70
22469;DHT22;11401;50.792;4.352;2024-03-02T04:27:11;14.20;59.40
22469;DHT22;11401;50.792;4.352;2024-03-02T04:29:38;14.30;59.80
22469;DHT22;11401;50.792;4.352;2024-03-02T04:32:05;14.30;59.60
22469;DHT22;11401;50.792;4.352;2024-03-02T04:34:32;14.30;59.30
22469;DHT22;11401;50.792;4.352;2024-03-02T04:36:59;14.20;59.30
22469;DHT22;11401;50.792;4.352;2024-03-02T04:39:26;14.20;59.30
22469;DHT22;11401;50.792;4.352;2024-03-02T04:41:54;14.20;60.30
22469;DHT22;11401;50.792;4.352;2024-03-02T04:44:20;14.30;59.70
22469;DHT22;11401;50.792;4.352;2024-03-02T04:46:48;14.30;59.10
22469;DHT22;11401;50.792;4.352;2024-03-02T04:49:15;14.10;59.80
22469;DHT22;11401;50.792;4.352;2024-03-02T04:51:42;14.20;60.20
22469;DHT22;11401;50.792;4.352;2024-03-02T04:54:09;14.20;59.40
22469;DHT22;11401;50.792;4.352;2024-03-02T04:56:36;14.10;59.30
22469;DHT22;11401;50.792;4.352;2024-03-02T04:59:17;14.00;59.40
22469;DHT22;11401;50.792;4.352;2024-03-02T05:01:45;13.90;59.70
22469;DHT22;11401;50.792;4.352;2024-03-02T05:04:12;14.00;60.50
22469;DHT22;11401;50.792;4.352;2024-03-02T05:06:39;14.00;59.70
22469;DHT22;11401;50.792;4.352;2024-03-02T05:09:09;14.10;59.60
22469;DHT22;11401;50.792;4.352;2024-03-02T05:11:37;14.00;59.80
22469;DHT22;11401;50.792;4.352;2024-03-02T05:14:07;14.00;59.60
22469;DHT22;11401;50.792;4.352;2024-03-02T05:16:37;14.00;59.90
22469;DHT22;11401;50.792;4.352;2024-03-02T05:19:08;14.00;59.70
22469;DHT22;11401;50.792;4.352;2024-03-02T05:21:35;14.00;59.80
22469;DHT22;11401;50.792;4.352;2024-03-02T05:24:02;14.00;59.00
22469;DHT22;11401;50.792;4.352;2024-03-02T05:26:30;14.00;60.00
22469;DHT22;11401;50.792;4.352;2024-03-02T05:28:57;14.00;59.60
22469;DHT22;11401;50.792;4.352;2024-03-02T05:31:24;13.90;59.60
22469;DHT22;11401;50.792;4.352;2024-03-02T05:33:51;13.90;58.90
22469;DHT22;11401;50.792;4.352;2024-03-02T05:36:23;13.80;59.80
22469;DHT22;11401;50.792;4.352;2024-03-02T05:38:50;13.80;59.60
22469;DHT22;11401;50.792;4.352;2024-03-02T05:41:18;13.80;59.00
22469;DHT22;11401;50.792;4.352;2024-03-02T05:43:45;13.80;60.10
22469;DHT22;11401;50.792;4.352;2024-03-02T05:46:12;13.80;59.30
22469;DHT22;11401;50.792;4.352;2024-03-02T05:48:39;13.80;59.40
22469;DHT22;11401;50.792;4.352;2024-03-02T05:51:06;13.70;60.20
22469;DHT22;11401;50.792;4.352;2024-03-02T05:53:33;13.70;59.80
22469;DHT22;11401;50.792;4.352;2024-03-02T05:56:00;13.70;59.80
22469;DHT22;11401;50.792;4.352;2024-03-02T05:58:31;13.70;59.80
22469;DHT22;11401;50.792;4.352;2024-03-02T06:01:30;13.60;60.20
22469;DHT22;11401;50.792;4.352;2024-03-02T06:03:58;13.60;59.80
22469;DHT22;11401;50.792;4.352;2024-03-02T06:06:25;13.70;59.90
22469;DHT22;11401;50.792;4.352;2024-03-02T06:08:53;13.70;59.90
22469;DHT22;11401;50.792;4.352;2024-03-02T06:11:22;13.60;59.20
22469;DHT22;11401;50.792;4.352;2024-03-02T06:13:49;13.60;60.50
22469;DHT22;11401;50.792;4.352;2024-03-02T06:16:16;13.60;60.40
22469;DHT22;11401;50.792;4.352;2024-03-02T06:18:43;13.50;59.20
22469;DHT22;11401;50.792;4.352;2024-03-02T06:21:10;13.50;59.00
22469;DHT22;11401;50.792;4.352;2024-03-02T06:23:37;13.50;59.20
22469;DHT22;11401;50.792;4.352;2024-03-02T06:26:04;13.60;59.50
22469;DHT22;11401;50.792;4.352;2024-03-02T06:28:31;13.50;59.90
22469;DHT22;11401;50.792;4.352;2024-03-02T06:30:58;13.60;60.10
22469;DHT22;11401;50.792;4.352;2024-03-02T06:33:25;13.60;59.80
22469;DHT22;11401;50.792;4.352;2024-03-02T06:35:53;13.70;60.20
22469;DHT22;11401;50.792;4.352;2024-03-02T06:38:20;13.70;60.50
22469;DHT22;11401;50.792;4.352;2024-03-02T06:40:47;13.60;60.00
22469;DHT22;11401;50.792;4.352;2024-03-02T06:43:14;13.70;60.20
22469;DHT22;11401;50.792;4.352;2024-03-02T06:45:41;13.70;60.60
22469;DHT22;11401;50.792;4.352;2024-03-02T06:48:08;13.60;60.10
22469;DHT22;11401;50.792;4.352;2024-03-02T06:50:35;13.60;60.00
22469;DHT22;11401;50.792;4.352;2024-03-02T06:53:02;13.70;60.90
22469;DHT22;11401;50.792;4.352;2024-03-02T06:55:31;13.80;60.30
22469;DHT22;11401;50.792;4.352;2024-03-02T06:57:58;13.70;59.60
22469;DHT22;11401;50.792;4.352;2024-03-02T07:00:25;13.70;59.90
22469;DHT22;11401;50.792;4.352;2024-03-02T07:02:52;13.70;60.10
22469;DHT22;11401;50.792;4.352;2024-03-02T07:05:19;13.60;60.00
22469;DHT22;11401;50.792;4.352;2024-03-02T07:07:48;13.60;60.60
22469;DHT22;11401;50.792;4.352;2024-03-02T07:10:15;13.70;61.40
22469;DHT22;11401;50.792;4.352;2024-03-02T07:12:43;13.70;59.80
22469;DHT22;11401;50.792;4.352;2024-03-02T07:15:11;13.70;60.00
22469;DHT22;11401;50.792;4.352;2024-03-02T07:17:55;13.70;60.10
22469;DHT22;11401;50.792;4.352;2024-03-02T07:20:22;13.60;60.00
22469;DHT22;11401;50.792;4.352;2024-03-02T07:22:51;13.60;59.40
22469;DHT22;11401;50.792;4.352;2024-03-02T07:25:17;13.50;59.40
22469;DHT22;11401;50.792;4.352;2024-03-02T07:27:47;13.30;59.50
22469;DHT22;11401;50.792;4.352;2024-03-02T07:30:15;13.50;59.50
22469;DHT22;11401;50.792;4.352;2024-03-02T07:32:43;13.50;59.90
22469;DHT22;11401;50.792;4.352;2024-03-02T07:35:13;13.60;59.90
22469;DHT22;11401;50.792;4.352;2024-03-02T07:37:44;13.60;61.20
22469;DHT22;11401;50.792;4.352;2024-03-02T07:40:11;13.70;60.30
22469;DHT22;11401;50.792;4.352;2024-03-02T07:42:39;13.70;60.50
22469;DHT22;11401;50.792;4.352;2024-03-02T07:45:07;13.60;59.40
22469;DHT22;11401;50.792;4.352;2024-03-02T07:47:34;13.60;61.20
22469;DHT22;11401;50.792;4.352;2024-03-02T07:50:02;13.50;61.20
22469;DHT22;11401;50.792;4.352;2024-03-02T07:52:29;13.50;61.60
22469;DHT22;11401;50.792;4.352;2024-03-02T07:54:56;13.60;61.00
22469;DHT22;11401;50.792;4.352;2024-03-02T07:57:23;13.70;61.00
22469;DHT22;11401;50.792;4.352;2024-03-02T07:59:50;13.70;61.30
22469;DHT22;11401;50.792;4.352;2024-03-02T08:02:17;13.60;60.70
22469;DHT22;11401;50.792;4.352;2024-03-02T08:04:46;13.70;61.20
22469;DHT22;11401;50.792;4.352;2024-03-02T08:07:13;13.80;60.50
22469;DHT22;11401;50.792;4.352;2024-03-02T08:09:40;13.90;60.40
22469;DHT22;11401;50.792;4.352;2024-03-02T08:12:07;13.80;59.70
22469;DHT22;11401;50.792;4.352;2024-03-02T08:14:35;13.90;59.60
22469;DHT22;11401;50.792;4.352;2024-03-02T08:17:02;13.80;60.70
22469;DHT22;11401;50.792;4.352;2024-03-02T08:19:36;13.80;59.20
22469;DHT22;11401;50.792;4.352;2024-03-02T08:22:04;13.90;60.80
22469;DHT22;11401;50.792;4.352;2024-03-02T08:24:31;14.00;61.00
22469;DHT22;11401;50.792;4.352;2024-03-02T08:27:02;14.00;59.20
22469;DHT22;11401;50.792;4.352;2024-03-02T08:29:29;14.10;60.50
22469;DHT22;11401;50.792;4.352;2024-03-02T08:31:56;14.10;60.30
22469;DHT22;11401;50.792;4.352;2024-03-02T08:34:23;14.30;60.20
22469;DHT22;11401;50.792;4.352;2024-03-02T08:36:50;14.40;59.00
22469;DHT22;11401;50.792;4.352;2024-03-02T08:39:17;14.40;59.10
22469;DHT22;11401;50.792;4.352;2024-03-02T08:41:47;14.50;58.60
22469;DHT22;11401;50.792;4.352;2024-03-02T08:44:14;14.70;59.40
22469;DHT22;11401;50.792;4.352;2024-03-02T08:46:41;14.80;58.70
22469;DHT22;11401;50.792;4.352;2024-03-02T08:49:08;14.80;58.30
22469;DHT22;11401;50.792;4.352;2024-03-02T08:51:35;14.80;56.90
22469;DHT22;11401;50.792;4.352;2024-03-02T08:54:03;14.80;58.20
22469;DHT22;11401;50.792;4.352;2024-03-02T08:56:31;14.80;58.10
22469;DHT22;11401;50.792;4.352;2024-03-02T08:58:58;15.00;58.20
22469;DHT22;11401;50.792;4.352;2024-03-02T09:01:25;14.90;56.70
22469;DHT22;11401;50.792;4.352;2024-03-02T09:03:53;14.90;57.20
22469;DHT22;11401;50.792;4.352;2024-03-02T09:06:20;15.00;57.50
22469;DHT22;11401;50.792;4.352;2024-03-02T09:08:48;15.00;57.00
22469;DHT22;11401;50.792;4.352;2024-03-02T09:11:16;15.10;56.60
22469;DHT22;11401;50.792;4.352;2024-03-02T09:13:44;15.20;58.10
22469;DHT22;11401;50.792;4.352;2024-03-02T09:16:11;15.40;58.00
22469;DHT22;11401;50.792;4.352;2024-03-02T09:18:38;15.40;56.10
22469;DHT22;11401;50.792;4.352;2024-03-02T09:21:05;15.30;55.30
22469;DHT22;11401;50.792;4.352;2024-03-02T09:23:33;15.20;56.60
22469;DHT22;11401;50.792;4.352;2024-03-02T09:26:00;15.20;57.10
22469;DHT22;11401;50.792;4.352;2024-03-02T09:28:27;15.30;56.50
22469;DHT22;11401;50.792;4.352;2024-03-02T09:30:54;15.30;55.70
22469;DHT22;11401;50.792;4.352;2024-03-02T09:33:26;15.40;56.60
22469;DHT22;11401;50.792;4.352;2024-03-02T09:35:53;15.40;55.10
22469;DHT22;11401;50.792;4.352;2024-03-02T09:38:21;15.30;55.20
22469;DHT22;11401;50.792;4.352;2024-03-02T09:40:48;15.30;56.30
22469;DHT22;11401;50.792;4.352;2024-03-02T09:43:16;15.50;56.80
22469;DHT22;11401;50.792;4.352;2024-03-02T09:45:43;15.50;57.20
22469;DHT22;11401;50.792;4.352;2024-03-02T09:48:11;15.50;54.70
22469;DHT22;11401;50.792;4.352;2024-03-02T09:50:38;15.50;56.20
22469;DHT22;11401;50.792;4.352;2024-03-02T09:53:07;15.70;57.50
22469;DHT22;11401;50.792;4.352;2024-03-02T09:55:35;15.80;56.50
22469;DHT22;11401;50.792;4.352;2024-03-02T09:58:03;15.90;56.30
22469;DHT22;11401;50.792;4.352;2024-03-02T10:00:30;15.80;55.80
22469;DHT22;11401;50.792;4.352;2024-03-02T10:02:57;15.70;54.30
22469;DHT22;11401;50.792;4.352;2024-03-02T10:05:26;15.60;55.60
22469;DHT22;11401;50.792;4.352;2024-03-02T10:08:03;15.70;55.30
22469;DHT22;11401;50.792;4.352;2024-03-02T10:10:40;15.80;55.60
22469;DHT22;11401;50.792;4.352;2024-03-02T10:13:11;16.10;56.60
22469;DHT22;11401;50.792;4.352;2024-03-02T10:15:40;16.30;59.00
22469;DHT22;11401;50.792;4.352;2024-03-02T10:18:12;16.30;55.90
22469;DHT22;11401;50.792;4.352;2024-03-02T10:20:40;16.40;55.20
22469;DHT22;11401;50.792;4.352;2024-03-02T10:23:11;16.40;56.40
22469;DHT22;11401;50.792;4.352;2024-03-02T10:25:40;16.50;56.90
22469;DHT22;11401;50.792;4.352;2024-03-02T10:28:20;16.40;53.90
22469;DHT22;11401;50.792;4.352;2024-03-02T10:30:48;16.20;53.50
22469;DHT22;11401;50.792;4.352;2024-03-02T10:33:17;16.30;55.80
22469;DHT22;11401;50.792;4.352;2024-03-02T10:35:45;16.30;55.20
22469;DHT22;11401;50.792;4.352;2024-03-02T10:38:12;16.40;55.70
22469;DHT22;11401;50.792;4.352;2024-03-02T10:40:39;16.40;53.20
22469;DHT22;11401;50.792;4.352;2024-03-02T10:43:07;16.50;54.20
22469;DHT22;11401;50.792;4.352;2024-03-02T10:45:34;16.60;55.10
22469;DHT22;11401;50.792;4.352;2024-03-02T10:48:02;16.70;55.80
22469;DHT22;11401;50.792;4.352;2024-03-02T10:50:30;16.50;52.30
22469;DHT22;11401;50.792;4.352;2024-03-02T10:52:57;16.40;53.80
22469;DHT22;11401;50.792;4.352;2024-03-02T10:55:24;16.50;54.00
22469;DHT22;11401;50.792;4.352;2024-03-02T10:57:54;16.50;54.30
22469;DHT22;11401;50.792;4.352;2024-03-02T11:00:25;16.60;54.10
22469;DHT22;11401;50.792;4.352;2024-03-02T11:03:02;16.50;53.60
22469;DHT22;11401;50.792;4.352;2024-03-02T11:05:36;16.60;54.60
22469;DHT22;11401;50.792;4.352;2024-03-02T11:08:08;16.50;50.60
22469;DHT22;11401;50.792;4.352;2024-03-02T11:10:45;16.50;54.90
22469;DHT22;11401;50.792;4.352;2024-03-02T11:13:15;16.60;55.40
22469;DHT22;11401;50.792;4.352;2024-03-02T11:15:44;16.70;54.60
22469;DHT22;11401;50.792;4.352;2024-03-02T11:18:12;16.70;53.10
22469;DHT22;11401;50.792;4.352;2024-03-02T11:20:40;16.60;53.10
22469;DHT22;11401;50.792;4.352;2024-03-02T11:23:10;16.60;51.50
22469;DHT22;11401;50.792;4.352;2024-03-02T11:25:37;16.40;52.30
22469;DHT22;11401;50.792;4.352;2024-03-02T11:28:07;16.40;53.60
22469;DHT22;11401;50.792;4.352;2024-03-02T11:33:08;17.00;59.40
22469;DHT22;11401;50.792;4.352;2024-03-02T11:35:41;17.20;56.60
22469;DHT22;11401;50.792;4.352;2024-03-02T11:38:14;17.30;58.50
22469;DHT22;11401;50.792;4.352;2024-03-02T11:40:41;17.50;58.00
22469;DHT22;11401;50.792;4.352;2024-03-02T11:43:09;17.70;57.70
22469;DHT22;11401;50.792;4.352;2024-03-02T11:45:37;17.70;54.40
22469;DHT22;11401;50.792;4.352;2024-03-02T11:48:11;17.60;51.00
22469;DHT22;11401;50.792;4.352;2024-03-02T11:50:42;17.50;53.80
22469;DHT22;11401;50.792;4.352;2024-03-02T11:53:10;17.60;55.70
22469;DHT22;11401;50.792;4.352;2024-03-02T11:55:40;17.60;52.50
22469;DHT22;11401;50.792;4.352;2024-03-02T11:58:08;17.40;50.00
22469;DHT22;11401;50.792;4.352;2024-03-02T12:00:36;17.40;52.60
22469;DHT22;11401;50.792;4.352;2024-03-02T12:03:09;17.40;51.80
22469;DHT22;11401;50.792;4.352;2024-03-02T12:05:36;17.40;51.70
22469;DHT22;11401;50.792;4.352;2024-03-02T12:08:05;17.30;50.40
22469;DHT22;11401;50.792;4.352;2024-03-02T12:10:35;17.20;50.50
22469;DHT22;11401;50.792;4.352;2024-03-02T12:13:05;17.20;52.00
22469;DHT22;11401;50.792;4.352;2024-03-02T12:15:35;17.10;51.60
22469;DHT22;11401;50.792;4.352;2024-03-02T12:18:04;17.00;50.00
22469;DHT22;11401;50.792;4.352;2024-03-02T12:20:33;17.00;51.40
22469;DHT22;11401;50.792;4.352;2024-03-02T12:23:02;17.00;52.40
22469;DHT22;11401;50.792;4.352;2024-03-02T12:25:30;17.00;53.30
22469;DHT22;11401;50.792;4.352;2024-03-02T12:28:00;17.00;50.60
22469;DHT22;11401;50.792;4.352;2024-03-02T12:30:30;16.80;51.00
22469;DHT22;11401;50.792;4.352;2024-03-02T12:32:58;16.70;51.00
22469;DHT22;11401;50.792;4.352;2024-03-02T12:35:26;16.70;51.70
22469;DHT22;11401;50.792;4.352;2024-03-02T12:37:54;16.80;52.60
22469;DHT22;11401;50.792;4.352;2024-03-02T12:40:21;16.80;52.40
22469;DHT22;11401;50.792;4.352;2024-03-02T12:42:50;16.80;51.90
22469;DHT22;11401;50.792;4.352;2024-03-02T12:45:18;16.80;51.70
22469;DHT22;11401;50.792;4.352;2024-03-02T12:47:51;16.80;51.90
22469;DHT22;11401;50.792;4.352;2024-03-02T12:50:19;16.70;51.30
22469;DHT22;11401;50.792;4.352;2024-03-02T12:52:54;16.80;53.80
22469;DHT22;11401;50.792;4.352;2024-03-02T12:55:22;16.90;52.60
22469;DHT22;11401;50.792;4.352;2024-03-02T12:57:51;16.80;51.80
22469;DHT22;11401;50.792;4.352;2024-03-02T13:00:19;16.80;52.00
22469;DHT22;11401;50.792;4.352;2024-03-02T13:02:47;17.00;53.60
22469;DHT22;11401;50.792;4.352;2024-03-02T13:05:15;17.20;54.00
22469;DHT22;11401;50.792;4.352;2024-03-02T13:07:42;17.10;51.60
22469;DHT22;11401;50.792;4.352;2024-03-02T13:10:12;17.10;51.80
22469;DHT22;11401;50.792;4.352;2024-03-02T13:12:40;17.10;52.40
22469;DHT22;11401;50.792;4.352;2024-03-02T13:15:08;17.20;52.60
22469;DHT22;11401;50.792;4.352;2024-03-02T13:17:39;17.30;52.80
22469;DHT22;11401;50.792;4.352;2024-03-02T13:20:06;17.30;52.30
22469;DHT22;11401;50.792;4.352;2024-03-02T13:22:37;17.30;52.20
22469;DHT22;11401;50.792;4.352;2024-03-02T13:25:05;17.20;51.20
22469;DHT22;11401;50.792;4.352;2024-03-02T13:27:33;17.10;51.10
22469;DHT22;11401;50.792;4.352;2024-03-02T13:30:04;17.10;51.40
22469;DHT22;11401;50.792;4.352;2024-03-02T13:32:32;17.10;52.10
22469;DHT22;11401;50.792;4.352;2024-03-02T13:35:00;17.20;52.20
22469;DHT22;11401;50.792;4.352;2024-03-02T13:37:27;17.20;52.60
22469;DHT22;11401;50.792;4.352;2024-03-02T13:39:54;17.30;53.30
22469;DHT22;11401;50.792;4.352;2024-03-02T13:42:21;17.40;53.40
22469;DHT22;11401;50.792;4.352;2024-03-02T13:44:48;17.30;52.00
22469;DHT22;11401;50.792;4.352;2024-03-02T13:47:17;17.20;51.30
22469;DHT22;11401;50.792;4.352;2024-03-02T13:49:44;17.10;50.90
22469;DHT22;11401;50.792;4.352;2024-03-02T13:52:15;17.00;51.80
22469;DHT22;11401;50.792;4.352;2024-03-02T13:54:45;17.10;52.00
22469;DHT22;11401;50.792;4.352;2024-03-02T13:57:12;17.10;51.60
22469;DHT22;11401;50.792;4.352;2024-03-02T13:59:41;17.10;52.50
22469;DHT22;11401;50.792;4.352;2024-03-02T14:02:08;17.10;52.20
22469;DHT22;11401;50.792;4.352;2024-03-02T14:04:36;17.10;52.50
22469;DHT22;11401;50.792;4.352;2024-03-02T14:07:05;17.00;51.80
22469;DHT22;11401;50.792;4.352;2024-03-02T14:09:36;17.00;52.00
22469;DHT22;11401;50.792;4.352;2024-03-02T14:12:04;17.00;52.50
22469;DHT22;11401;50.792;4.352;2024-03-02T14:14:32;17.10;52.60
22469;DHT22;11401;50.792;4.352;2024-03-02T14:16:59;17.10;52.80
22469;DHT22;11401;50.792;4.352;2024-03-02T14:19:30;17.10;53.60
22469;DHT22;11401;50.792;4.352;2024-03-02T14:21:58;17.10;53.90
22469;DHT22;11401;50.792;4.352;2024-03-02T14:24:25;17.10;54.20
22469;DHT22;11401;50.792;4.352;2024-03-02T14:26:53;17.20;54.30
22469;DHT22;11401;50.792;4.352;2024-03-02T14:29:29;17.20;54.40
22469;DHT22;11401;50.792;4.352;2024-03-02T14:31:56;17.20;54.90
22469;DHT22;11401;50.792;4.352;2024-03-02T14:34:23;17.20;54.60
22469;DHT22;11401;50.792;4.352;2024-03-02T14:36:50;17.10;54.90
22469;DHT22;11401;50.792;4.352;2024-03-02T14:39:17;17.10;55.00
22469;DHT22;11401;50.792;4.352;2024-03-02T14:41:46;17.10;54.90
22469;DHT22;11401;50.792;4.352;2024-03-02T14:44:13;17.20;55.70
22469;DHT22;11401;50.792;4.352;2024-03-02T14:46:40;17.10;54.50
22469;DHT22;11401;50.792;4.352;2024-03-02T14:49:10;17.10;54.90
22469;DHT22;11401;50.792;4.352;2024-03-02T14:51:37;17.20;55.00
22469;DHT22;11401;50.792;4.352;2024-03-02T14:54:04;17.20;55.10
22469;DHT22;11401;50.792;4.352;2024-03-02T14:56:31;17.20;54.90
22469;DHT22;11401;50.792;4.352;2024-03-02T14:58:59;17.20;54.90
22469;DHT22;11401;50.792;4.352;2024-03-02T15:01:26;17.30;54.90
22469;DHT22;11401;50.792;4.352;2024-03-02T15:03:53;17.40;55.30
22469;DHT22;11401;50.792;4.352;2024-03-02T15:06:20;17.40;55.50
22469;DHT22;11401;50.792;4.352;2024-03-02T15:08:47;17.50;54.90
22469;DHT22;11401;50.792;4.352;2024-03-02T15:11:14;17.30;54.00
22469;DHT22;11401;50.792;4.352;2024-03-02T15:13:42;17.30;55.20
22469;DHT22;11401;50.792;4.352;2024-03-02T15:16:09;17.40;55.10
22469;DHT22;11401;50.792;4.352;2024-03-02T15:18:37;17.30;54.80
22469;DHT22;11401;50.792;4.352;2024-03-02T15:21:04;17.30;54.90
22469;DHT22;11401;50.792;4.352;2024-03-02T15:23:31;17.20;55.20
22469;DHT22;11401;50.792;4.352;2024-03-02T15:25:58;17.10;55.10
22469;DHT22;11401;50.792;4.352;2024-03-02T15:28:26;17.10;55.70
22469;DHT22;11401;50.792;4.352;2024-03-02T15:30:53;17.00;55.70
22469;DHT22;11401;50.792;4.352;2024-03-02T15:33:22;17.00;55.70
22469;DHT22;11401;50.792;4.352;2024-03-02T15:35:52;17.00;56.00
22469;DHT22;11401;50.792;4.352;2024-03-02T15:38:22;17.00;56.00
22469;DHT22;11401;50.792;4.352;2024-03-02T15:41:00;17.00;56.30
22469;DHT22;11401;50.792;4.352;2024-03-02T15:43:27;17.10;55.90
22469;DHT22;11401;50.792;4.352;2024-03-02T15:45:54;17.10;55.80